sensor_id;sensor_type;location;lat;lon;timestamp;temperature;humidity
22678;DHT22;26259;50.214;18.620;2023-02-25T00:02:13;6.00;99.90
22678;DHT22;26259;50.214;18.620;2023-02-25T00:04:39;6.00;99.90
22678;DHT22;26259;50.214;18.620;2023-02-25T00:07:06;5.90;99.90
22678;DHT22;26259;50.214;18.620;2023-02-25T00:09:32;5.90;99.90
22678;DHT22;26259;50.214;18.620;2023-02-25T00:11:58;5.80;99.90
22678;DHT22;26259;50.214;18.620;2023-02-25T00:14:23;5.80;99.90
22678;DHT22;26259;50.214;18.620;2023-02-25T00:16:49;5.70;99.90
22678;DHT22;26259;50.214;18.620;2023-02-25T00:19:15;5.60;99.90
22678;DHT22;26259;50.214;18.620;2023-02-25T00:21:41;5.50;99.90
22678;DHT22;26259;50.214;18.620;2023-02-25T00:24:07;5.50;99.90
22678;DHT22;26259;50.214;18.620;2023-02-25T00:26:32;5.50;99.90
22678;DHT22;26259;50.214;18.620;2023-02-25T00:28:58;5.40;99.90
22678;DHT22;26259;50.214;18.620;2023-02-25T00:31:24;5.40;99.90
22678;DHT22;26259;50.214;18.620;2023-02-25T00:33:50;5.40;99.90
22678;DHT22;26259;50.214;18.620;2023-02-25T00:36:18;5.40;99.90
22678;DHT22;26259;50.214;18.620;2023-02-25T00:38:46;5.40;99.90
22678;DHT22;26259;50.214;18.620;2023-02-25T00:41:13;5.40;99.90
22678;DHT22;26259;50.214;18.620;2023-02-25T00:43:43;5.40;99.90
22678;DHT22;26259;50.214;18.620;2023-02-25T00:46:10;5.30;99.90
22678;DHT22;26259;50.214;18.620;2023-02-25T00:48:36;5.30;99.90
22678;DHT22;26259;50.214;18.620;2023-02-25T00:51:07;5.20;99.90
22678;DHT22;26259;50.214;18.620;2023-02-25T00:53:33;5.20;99.90
22678;DHT22;26259;50.214;18.620;2023-02-25T00:56:00;5.20;99.90
22678;DHT22;26259;50.214;18.620;2023-02-25T00:58:26;5.20;99.90
22678;DHT22;26259;50.214;18.620;2023-02-25T01:00:51;5.20;99.90
22678;DHT22;26259;50.214;18.620;2023-02-25T01:03:17;5.20;99.90
22678;DHT22;26259;50.214;18.620;2023-02-25T01:05:43;5.20;99.90
22678;DHT22;26259;50.214;18.620;2023-02-25T01:08:17;5.20;99.90
22678;DHT22;26259;50.214;18.620;2023-02-25T01:10:43;5.20;99.90
22678;DHT22;26259;50.214;18.620;2023-02-25T01:13:09;5.20;99.90
22678;DHT22;26259;50.214;18.620;2023-02-25T01:15:35;5.10;99.90
22678;DHT22;26259;50.214;18.620;2023-02-25T01:18:00;5.10;99.90
22678;DHT22;26259;50.214;18.620;2023-02-25T01:20:26;5.10;99.90
22678;DHT22;26259;50.214;18.620;2023-02-25T01:22:54;5.00;99.90
22678;DHT22;26259;50.214;18.620;2023-02-25T01:25:20;4.90;99.90
22678;DHT22;26259;50.214;18.620;2023-02-25T01:27:45;4.90;99.90
22678;DHT22;26259;50.214;18.620;2023-02-25T01:30:11;4.90;99.90
22678;DHT22;26259;50.214;18.620;2023-02-25T01:32:37;4.90;99.90
22678;DHT22;26259;50.214;18.620;2023-02-25T01:35:03;4.90;99.90
22678;DHT22;26259;50.214;18.620;2023-02-25T01:37:29;4.90;99.90
22678;DHT22;26259;50.214;18.620;2023-02-25T01:39:55;4.90;99.90
22678;DHT22;26259;50.214;18.620;2023-02-25T01:42:21;4.90;99.90
22678;DHT22;26259;50.214;18.620;2023-02-25T01:47:52;4.90;99.90
22678;DHT22;26259;50.214;18.620;2023-02-25T01:50:22;4.90;99.90
22678;DHT22;26259;50.214;18.620;2023-02-25T01:52:49;4.90;99.90
22678;DHT22;26259;50.214;18.620;2023-02-25T01:55:15;4.90;99.90
22678;DHT22;26259;50.214;18.620;2023-02-25T01:57:40;4.90;99.90
22678;DHT22;26259;50.214;18.620;2023-02-25T02:00:09;4.90;99.90
22678;DHT22;26259;50.214;18.620;2023-02-25T02:02:43;4.90;99.90
22678;DHT22;26259;50.214;18.620;2023-02-25T02:05:10;4.90;99.90
22678;DHT22;26259;50.214;18.620;2023-02-25T02:07:36;5.00;99.90
22678;DHT22;26259;50.214;18.620;2023-02-25T02:10:02;5.10;99.90
22678;DHT22;26259;50.214;18.620;2023-02-25T02:12:32;5.00;99.90
22678;DHT22;26259;50.214;18.620;2023-02-25T02:14:59;5.00;99.90
22678;DHT22;26259;50.214;18.620;2023-02-25T02:17:34;5.00;99.90
22678;DHT22;26259;50.214;18.620;2023-02-25T02:20:08;4.90;99.90
22678;DHT22;26259;50.214;18.620;2023-02-25T02:37:01;5.00;99.90
22678;DHT22;26259;50.214;18.620;2023-02-25T02:42:38;5.00;99.90
22678;DHT22;26259;50.214;18.620;2023-02-25T02:47:34;5.00;99.90
22678;DHT22;26259;50.214;18.620;2023-02-25T02:50:08;5.00;99.90
22678;DHT22;26259;50.214;18.620;2023-02-25T02:52:42;5.00;99.90
22678;DHT22;26259;50.214;18.620;2023-02-25T02:55:27;5.00;99.90
22678;DHT22;26259;50.214;18.620;2023-02-25T02:58:03;5.00;99.90
22678;DHT22;26259;50.214;18.620;2023-02-25T03:00:37;5.00;99.90
22678;DHT22;26259;50.214;18.620;2023-02-25T03:03:16;4.90;99.90
22678;DHT22;26259;50.214;18.620;2023-02-25T03:05:46;4.90;99.90
22678;DHT22;26259;50.214;18.620;2023-02-25T03:08:25;4.90;99.90
22678;DHT22;26259;50.214;18.620;2023-02-25T03:10:52;4.80;99.90
22678;DHT22;26259;50.214;18.620;2023-02-25T03:13:18;4.80;99.90
22678;DHT22;26259;50.214;18.620;2023-02-25T03:15:43;4.70;99.90
22678;DHT22;26259;50.214;18.620;2023-02-25T03:18:24;4.70;99.90
22678;DHT22;26259;50.214;18.620;2023-02-25T03:20:53;4.60;99.90
22678;DHT22;26259;50.214;18.620;2023-02-25T03:23:25;4.60;99.90
22678;DHT22;26259;50.214;18.620;2023-02-25T03:25:56;4.60;99.90
22678;DHT22;26259;50.214;18.620;2023-02-25T03:28:29;4.50;99.90
22678;DHT22;26259;50.214;18.620;2023-02-25T03:33:40;4.40;99.90
22678;DHT22;26259;50.214;18.620;2023-02-25T03:36:35;4.40;99.90
22678;DHT22;26259;50.214;18.620;2023-02-25T03:39:04;4.40;99.90
22678;DHT22;26259;50.214;18.620;2023-02-25T03:41:34;4.30;99.90
22678;DHT22;26259;50.214;18.620;2023-02-25T03:44:03;4.30;99.90
22678;DHT22;26259;50.214;18.620;2023-02-25T03:46:30;4.20;99.90
22678;DHT22;26259;50.214;18.620;2023-02-25T03:48:58;4.20;99.90
22678;DHT22;26259;50.214;18.620;2023-02-25T03:51:32;4.20;99.90
22678;DHT22;26259;50.214;18.620;2023-02-25T03:53:58;4.10;99.90
22678;DHT22;26259;50.214;18.620;2023-02-25T03:56:23;4.10;99.90
22678;DHT22;26259;50.214;18.620;2023-02-25T03:58:49;4.10;99.90
22678;DHT22;26259;50.214;18.620;2023-02-25T04:01:19;4.10;99.90
22678;DHT22;26259;50.214;18.620;2023-02-25T04:03:46;4.00;99.90
22678;DHT22;26259;50.214;18.620;2023-02-25T04:06:12;3.90;99.90
22678;DHT22;26259;50.214;18.620;2023-02-25T04:08:39;3.90;99.90
22678;DHT22;26259;50.214;18.620;2023-02-25T04:11:04;3.80;99.90
22678;DHT22;26259;50.214;18.620;2023-02-25T04:13:30;3.80;99.90
22678;DHT22;26259;50.214;18.620;2023-02-25T04:15:56;3.70;99.90
22678;DHT22;26259;50.214;18.620;2023-02-25T04:18:21;3.70;99.90
22678;DHT22;26259;50.214;18.620;2023-02-25T04:20:49;3.60;99.90
22678;DHT22;26259;50.214;18.620;2023-02-25T04:23:15;3.60;99.90
22678;DHT22;26259;50.214;18.620;2023-02-25T04:25:41;3.50;99.90
22678;DHT22;26259;50.214;18.620;2023-02-25T04:28:08;3.40;99.90
22678;DHT22;26259;50.214;18.620;2023-02-25T04:30:34;3.30;99.90
22678;DHT22;26259;50.214;18.620;2023-02-25T04:33:00;3.20;99.90
22678;DHT22;26259;50.214;18.620;2023-02-25T04:35:26;3.10;99.90
22678;DHT22;26259;50.214;18.620;2023-02-25T04:37:51;3.00;99.90
22678;DHT22;26259;50.214;18.620;2023-02-25T04:40:19;2.90;99.90
22678;DHT22;26259;50.214;18.620;2023-02-25T04:42:45;2.80;99.90
22678;DHT22;26259;50.214;18.620;2023-02-25T04:45:13;2.80;99.90
22678;DHT22;26259;50.214;18.620;2023-02-25T04:47:39;2.80;99.90
22678;DHT22;26259;50.214;18.620;2023-02-25T04:50:06;2.60;99.90
22678;DHT22;26259;50.214;18.620;2023-02-25T04:52:32;2.40;99.90
22678;DHT22;26259;50.214;18.620;2023-02-25T04:54:58;2.40;99.90
22678;DHT22;26259;50.214;18.620;2023-02-25T04:57:24;2.30;99.90
22678;DHT22;26259;50.214;18.620;2023-02-25T04:59:50;2.30;99.90
22678;DHT22;26259;50.214;18.620;2023-02-25T05:02:15;2.20;99.90
22678;DHT22;26259;50.214;18.620;2023-02-25T05:04:41;2.10;99.90
22678;DHT22;26259;50.214;18.620;2023-02-25T05:07:07;2.10;99.90
22678;DHT22;26259;50.214;18.620;2023-02-25T05:09:33;2.00;99.90
22678;DHT22;26259;50.214;18.620;2023-02-25T05:11:58;1.90;99.90
22678;DHT22;26259;50.214;18.620;2023-02-25T05:14:24;1.90;99.90
22678;DHT22;26259;50.214;18.620;2023-02-25T05:16:50;1.90;99.90
22678;DHT22;26259;50.214;18.620;2023-02-25T05:19:17;1.90;99.90
22678;DHT22;26259;50.214;18.620;2023-02-25T05:21:43;1.90;99.90
22678;DHT22;26259;50.214;18.620;2023-02-25T05:24:09;1.90;99.90
22678;DHT22;26259;50.214;18.620;2023-02-25T05:26:37;2.00;99.90
22678;DHT22;26259;50.214;18.620;2023-02-25T05:29:03;2.10;99.90
22678;DHT22;26259;50.214;18.620;2023-02-25T05:31:29;2.30;99.90
22678;DHT22;26259;50.214;18.620;2023-02-25T05:33:54;2.50;99.90
22678;DHT22;26259;50.214;18.620;2023-02-25T05:36:21;2.60;99.90
22678;DHT22;26259;50.214;18.620;2023-02-25T05:38:46;2.70;99.90
22678;DHT22;26259;50.214;18.620;2023-02-25T05:41:13;2.80;99.90
22678;DHT22;26259;50.214;18.620;2023-02-25T05:43:39;2.90;99.90
22678;DHT22;26259;50.214;18.620;2023-02-25T05:46:06;2.90;99.90
22678;DHT22;26259;50.214;18.620;2023-02-25T05:48:36;3.00;99.90
22678;DHT22;26259;50.214;18.620;2023-02-25T05:51:09;3.10;99.90
22678;DHT22;26259;50.214;18.620;2023-02-25T05:53:35;3.10;99.90
22678;DHT22;26259;50.214;18.620;2023-02-25T05:56:06;3.10;99.90
22678;DHT22;26259;50.214;18.620;2023-02-25T05:58:32;3.10;99.90
22678;DHT22;26259;50.214;18.620;2023-02-25T06:00:59;3.10;99.90
22678;DHT22;26259;50.214;18.620;2023-02-25T06:03:25;3.20;99.90
22678;DHT22;26259;50.214;18.620;2023-02-25T06:05:50;3.30;99.90
22678;DHT22;26259;50.214;18.620;2023-02-25T06:08:17;3.30;99.90
22678;DHT22;26259;50.214;18.620;2023-02-25T06:10:43;3.40;99.90
22678;DHT22;26259;50.214;18.620;2023-02-25T06:13:10;3.50;99.90
22678;DHT22;26259;50.214;18.620;2023-02-25T06:15:37;3.50;99.90
22678;DHT22;26259;50.214;18.620;2023-02-25T06:18:03;3.50;99.90
22678;DHT22;26259;50.214;18.620;2023-02-25T06:20:29;3.60;99.90
22678;DHT22;26259;50.214;18.620;2023-02-25T06:22:55;3.60;99.90
22678;DHT22;26259;50.214;18.620;2023-02-25T06:25:20;3.70;99.90
22678;DHT22;26259;50.214;18.620;2023-02-25T06:27:46;3.80;99.90
22678;DHT22;26259;50.214;18.620;2023-02-25T06:30:12;3.80;99.90
22678;DHT22;26259;50.214;18.620;2023-02-25T06:32:38;3.80;99.90
22678;DHT22;26259;50.214;18.620;2023-02-25T06:35:04;3.80;99.90
22678;DHT22;26259;50.214;18.620;2023-02-25T06:37:31;3.80;99.90
22678;DHT22;26259;50.214;18.620;2023-02-25T06:39:57;3.80;99.90
22678;DHT22;26259;50.214;18.620;2023-02-25T06:42:22;3.80;99.90
22678;DHT22;26259;50.214;18.620;2023-02-25T06:44:48;3.80;99.90
22678;DHT22;26259;50.214;18.620;2023-02-25T06:47:13;3.80;99.90
22678;DHT22;26259;50.214;18.620;2023-02-25T06:49:39;3.80;99.90
22678;DHT22;26259;50.214;18.620;2023-02-25T06:52:05;3.70;99.90
22678;DHT22;26259;50.214;18.620;2023-02-25T06:54:30;3.70;99.90
22678;DHT22;26259;50.214;18.620;2023-02-25T06:56:56;3.60;99.90
22678;DHT22;26259;50.214;18.620;2023-02-25T06:59:21;3.60;99.90
22678;DHT22;26259;50.214;18.620;2023-02-25T07:01:47;3.60;99.90
22678;DHT22;26259;50.214;18.620;2023-02-25T07:04:17;3.60;99.90
22678;DHT22;26259;50.214;18.620;2023-02-25T07:06:43;3.50;99.90
22678;DHT22;26259;50.214;18.620;2023-02-25T07:09:09;3.50;99.90
22678;DHT22;26259;50.214;18.620;2023-02-25T07:11:34;3.50;99.90
22678;DHT22;26259;50.214;18.620;2023-02-25T07:14:02;3.40;99.90
22678;DHT22;26259;50.214;18.620;2023-02-25T07:16:28;3.40;99.90
22678;DHT22;26259;50.214;18.620;2023-02-25T07:18:58;3.40;99.90
22678;DHT22;26259;50.214;18.620;2023-02-25T07:21:26;3.50;99.90
22678;DHT22;26259;50.214;18.620;2023-02-25T07:23:53;3.60;99.90
22678;DHT22;26259;50.214;18.620;2023-02-25T07:26:19;3.80;99.90
22678;DHT22;26259;50.214;18.620;2023-02-25T07:28:45;3.90;99.90
22678;DHT22;26259;50.214;18.620;2023-02-25T07:31:14;4.10;99.90
22678;DHT22;26259;50.214;18.620;2023-02-25T07:33:41;4.30;99.90
22678;DHT22;26259;50.214;18.620;2023-02-25T07:36:09;4.30;99.90
22678;DHT22;26259;50.214;18.620;2023-02-25T07:38:35;4.50;99.90
22678;DHT22;26259;50.214;18.620;2023-02-25T07:41:06;4.60;99.90
22678;DHT22;26259;50.214;18.620;2023-02-25T07:43:32;4.80;99.90
22678;DHT22;26259;50.214;18.620;2023-02-25T07:45:58;4.90;99.90
22678;DHT22;26259;50.214;18.620;2023-02-25T07:48:24;5.00;99.90
22678;DHT22;26259;50.214;18.620;2023-02-25T07:50:50;5.10;99.90
22678;DHT22;26259;50.214;18.620;2023-02-25T07:53:15;5.10;99.90
22678;DHT22;26259;50.214;18.620;2023-02-25T07:55:42;5.20;99.90
22678;DHT22;26259;50.214;18.620;2023-02-25T07:58:10;5.20;99.90
22678;DHT22;26259;50.214;18.620;2023-02-25T08:00:35;5.30;99.90
22678;DHT22;26259;50.214;18.620;2023-02-25T08:03:03;5.40;99.90
22678;DHT22;26259;50.214;18.620;2023-02-25T08:05:32;5.40;99.90
22678;DHT22;26259;50.214;18.620;2023-02-25T08:07:58;5.20;99.90
22678;DHT22;26259;50.214;18.620;2023-02-25T08:10:24;5.20;99.90
22678;DHT22;26259;50.214;18.620;2023-02-25T08:12:49;5.10;99.90
22678;DHT22;26259;50.214;18.620;2023-02-25T08:15:15;5.20;99.90
22678;DHT22;26259;50.214;18.620;2023-02-25T08:17:40;5.20;99.90
22678;DHT22;26259;50.214;18.620;2023-02-25T08:20:06;5.30;99.90
22678;DHT22;26259;50.214;18.620;2023-02-25T08:22:33;5.40;99.90
22678;DHT22;26259;50.214;18.620;2023-02-25T08:24:59;5.50;99.90
22678;DHT22;26259;50.214;18.620;2023-02-25T08:27:24;5.60;99.90
22678;DHT22;26259;50.214;18.620;2023-02-25T08:29:50;5.50;99.90
22678;DHT22;26259;50.214;18.620;2023-02-25T08:32:16;5.60;99.90
22678;DHT22;26259;50.214;18.620;2023-02-25T08:34:41;5.60;99.90
22678;DHT22;26259;50.214;18.620;2023-02-25T08:37:09;5.60;99.90
22678;DHT22;26259;50.214;18.620;2023-02-25T08:39:36;5.70;99.90
22678;DHT22;26259;50.214;18.620;2023-02-25T08:42:02;5.70;99.90
22678;DHT22;26259;50.214;18.620;2023-02-25T08:44:27;5.80;99.90
22678;DHT22;26259;50.214;18.620;2023-02-25T08:46:53;6.00;99.90
22678;DHT22;26259;50.214;18.620;2023-02-25T08:49:18;6.10;99.90
22678;DHT22;26259;50.214;18.620;2023-02-25T08:51:44;6.10;99.90
22678;DHT22;26259;50.214;18.620;2023-02-25T08:54:12;6.00;99.90
22678;DHT22;26259;50.214;18.620;2023-02-25T08:56:38;6.00;99.90
22678;DHT22;26259;50.214;18.620;2023-02-25T08:59:10;6.00;99.90
22678;DHT22;26259;50.214;18.620;2023-02-25T09:01:37;5.90;99.90
22678;DHT22;26259;50.214;18.620;2023-02-25T09:04:17;5.80;99.90
22678;DHT22;26259;50.214;18.620;2023-02-25T09:06:44;5.70;99.90
22678;DHT22;26259;50.214;18.620;2023-02-25T09:09:14;5.60;99.90
22678;DHT22;26259;50.214;18.620;2023-02-25T09:11:40;5.60;99.90
22678;DHT22;26259;50.214;18.620;2023-02-25T09:14:06;5.50;99.90
22678;DHT22;26259;50.214;18.620;2023-02-25T09:16:32;5.40;99.90
22678;DHT22;26259;50.214;18.620;2023-02-25T09:18:58;5.50;99.90
22678;DHT22;26259;50.214;18.620;2023-02-25T09:21:24;5.40;99.90
22678;DHT22;26259;50.214;18.620;2023-02-25T09:23:50;5.50;99.90
22678;DHT22;26259;50.214;18.620;2023-02-25T09:26:17;5.50;99.90
22678;DHT22;26259;50.214;18.620;2023-02-25T09:28:43;5.50;99.90
22678;DHT22;26259;50.214;18.620;2023-02-25T09:31:09;5.40;99.90
22678;DHT22;26259;50.214;18.620;2023-02-25T09:33:35;5.40;99.90
22678;DHT22;26259;50.214;18.620;2023-02-25T09:36:09;5.30;99.90
22678;DHT22;26259;50.214;18.620;2023-02-25T09:38:36;5.20;99.90
22678;DHT22;26259;50.214;18.620;2023-02-25T09:41:02;5.10;99.90
22678;DHT22;26259;50.214;18.620;2023-02-25T09:43:38;4.90;99.90
22678;DHT22;26259;50.214;18.620;2023-02-25T09:46:08;4.80;99.90
22678;DHT22;26259;50.214;18.620;2023-02-25T09:48:39;4.70;99.90
22678;DHT22;26259;50.214;18.620;2023-02-25T09:51:22;4.60;99.90
22678;DHT22;26259;50.214;18.620;2023-02-25T09:54:19;4.60;99.90
22678;DHT22;26259;50.214;18.620;2023-02-25T09:56:46;4.50;99.90
22678;DHT22;26259;50.214;18.620;2023-02-25T09:59:16;4.40;99.90
22678;DHT22;26259;50.214;18.620;2023-02-25T10:02:00;4.40;99.90
22678;DHT22;26259;50.214;18.620;2023-02-25T10:04:35;4.20;99.90
22678;DHT22;26259;50.214;18.620;2023-02-25T10:07:18;4.20;99.90
22678;DHT22;26259;50.214;18.620;2023-02-25T10:09:59;4.30;99.90
22678;DHT22;26259;50.214;18.620;2023-02-25T10:12:31;4.50;99.90
22678;DHT22;26259;50.214;18.620;2023-02-25T10:26:23;5.40;99.90
22678;DHT22;26259;50.214;18.620;2023-02-25T10:29:12;5.60;99.90
22678;DHT22;26259;50.214;18.620;2023-02-25T10:31:41;5.70;99.90
22678;DHT22;26259;50.214;18.620;2023-02-25T10:34:23;5.80;99.90
22678;DHT22;26259;50.214;18.620;2023-02-25T10:36:54;5.80;99.90
22678;DHT22;26259;50.214;18.620;2023-02-25T10:39:20;5.80;99.90
22678;DHT22;26259;50.214;18.620;2023-02-25T10:41:46;5.70;99.90
22678;DHT22;26259;50.214;18.620;2023-02-25T10:44:13;5.70;99.90
22678;DHT22;26259;50.214;18.620;2023-02-25T10:46:48;5.70;99.90
22678;DHT22;26259;50.214;18.620;2023-02-25T10:49:20;5.80;99.90
22678;DHT22;26259;50.214;18.620;2023-02-25T10:51:59;6.00;99.90
22678;DHT22;26259;50.214;18.620;2023-02-25T10:54:32;6.30;99.90
22678;DHT22;26259;50.214;18.620;2023-02-25T10:57:01;6.50;99.90
22678;DHT22;26259;50.214;18.620;2023-02-25T10:59:38;6.70;99.90
22678;DHT22;26259;50.214;18.620;2023-02-25T11:02:39;6.70;99.90
22678;DHT22;26259;50.214;18.620;2023-02-25T11:05:06;6.80;99.90
22678;DHT22;26259;50.214;18.620;2023-02-25T11:10:24;6.70;99.90
22678;DHT22;26259;50.214;18.620;2023-02-25T11:12:56;6.60;99.90
22678;DHT22;26259;50.214;18.620;2023-02-25T11:15:35;6.50;99.90
22678;DHT22;26259;50.214;18.620;2023-02-25T11:20:55;6.40;99.90
22678;DHT22;26259;50.214;18.620;2023-02-25T11:23:25;6.50;99.90
22678;DHT22;26259;50.214;18.620;2023-02-25T11:25:53;6.50;99.90
22678;DHT22;26259;50.214;18.620;2023-02-25T11:31:02;6.20;99.90
22678;DHT22;26259;50.214;18.620;2023-02-25T11:33:34;6.00;99.90
22678;DHT22;26259;50.214;18.620;2023-02-25T11:36:01;5.80;99.90
22678;DHT22;26259;50.214;18.620;2023-02-25T11:38:34;5.70;99.90
22678;DHT22;26259;50.214;18.620;2023-02-25T11:41:00;5.50;99.90
22678;DHT22;26259;50.214;18.620;2023-02-25T11:43:33;5.30;99.90
22678;DHT22;26259;50.214;18.620;2023-02-25T11:51:29;4.50;99.90
22678;DHT22;26259;50.214;18.620;2023-02-25T11:54:09;4.40;99.90
22678;DHT22;26259;50.214;18.620;2023-02-25T11:56:45;4.40;99.90
22678;DHT22;26259;50.214;18.620;2023-02-25T12:08:08;5.00;99.90
22678;DHT22;26259;50.214;18.620;2023-02-25T12:22:13;5.20;99.90
22678;DHT22;26259;50.214;18.620;2023-02-25T12:31:03;5.20;99.90
22678;DHT22;26259;50.214;18.620;2023-02-25T12:33:49;5.20;99.90
22678;DHT22;26259;50.214;18.620;2023-02-25T12:42:23;5.50;99.90
22678;DHT22;26259;50.214;18.620;2023-02-25T12:50:30;5.50;99.90
22678;DHT22;26259;50.214;18.620;2023-02-25T12:53:17;5.50;99.90
22678;DHT22;26259;50.214;18.620;2023-02-25T13:12:45;5.20;99.90
22678;DHT22;26259;50.214;18.620;2023-02-25T13:15:24;5.00;99.90
22678;DHT22;26259;50.214;18.620;2023-02-25T13:34:08;4.40;99.90
22678;DHT22;26259;50.214;18.620;2023-02-25T13:37:06;3.90;99.90
22678;DHT22;26259;50.214;18.620;2023-02-25T13:40:00;3.60;99.90
22678;DHT22;26259;50.214;18.620;2023-02-25T13:51:00;3.30;99.90
22678;DHT22;26259;50.214;18.620;2023-02-25T14:05:12;3.10;99.90
22678;DHT22;26259;50.214;18.620;2023-02-25T14:07:45;3.10;99.90
22678;DHT22;26259;50.214;18.620;2023-02-25T14:24:33;3.70;99.90
22678;DHT22;26259;50.214;18.620;2023-02-25T14:27:28;3.90;99.90
22678;DHT22;26259;50.214;18.620;2023-02-25T14:44:36;4.20;99.90
22678;DHT22;26259;50.214;18.620;2023-02-25T14:47:15;4.10;99.90
22678;DHT22;26259;50.214;18.620;2023-02-25T14:50:02;3.90;99.90
22678;DHT22;26259;50.214;18.620;2023-02-25T14:52:48;3.90;99.90
22678;DHT22;26259;50.214;18.620;2023-02-25T14:58:25;3.70;99.90
22678;DHT22;26259;50.214;18.620;2023-02-25T15:01:03;3.70;99.90
22678;DHT22;26259;50.214;18.620;2023-02-25T15:12:16;3.40;99.90
22678;DHT22;26259;50.214;18.620;2023-02-25T15:20:32;3.30;99.90
22678;DHT22;26259;50.214;18.620;2023-02-25T15:23:18;3.30;99.90
22678;DHT22;26259;50.214;18.620;2023-02-25T15:28:36;3.00;99.90
22678;DHT22;26259;50.214;18.620;2023-02-25T15:31:08;2.80;99.90
22678;DHT22;26259;50.214;18.620;2023-02-25T15:33:39;2.70;99.90
22678;DHT22;26259;50.214;18.620;2023-02-25T15:46:48;2.40;99.90
22678;DHT22;26259;50.214;18.620;2023-02-25T15:49:19;2.40;99.90
22678;DHT22;26259;50.214;18.620;2023-02-25T15:51:52;2.40;99.90
22678;DHT22;26259;50.214;18.620;2023-02-25T15:57:35;2.40;99.90
22678;DHT22;26259;50.214;18.620;2023-02-25T16:02:40;2.50;99.90
22678;DHT22;26259;50.214;18.620;2023-02-25T16:07:42;2.40;99.90
22678;DHT22;26259;50.214;18.620;2023-02-25T16:12:46;2.50;99.90
22678;DHT22;26259;50.214;18.620;2023-02-25T16:17:56;2.50;99.90
22678;DHT22;26259;50.214;18.620;2023-02-25T16:20:32;2.50;99.90
22678;DHT22;26259;50.214;18.620;2023-02-25T16:23:08;2.50;99.90
22678;DHT22;26259;50.214;18.620;2023-02-25T16:33:44;2.30;99.90
22678;DHT22;26259;50.214;18.620;2023-02-25T16:36:15;2.30;99.90
22678;DHT22;26259;50.214;18.620;2023-02-25T16:39:19;2.30;99.90
22678;DHT22;26259;50.214;18.620;2023-02-25T16:41:46;2.30;99.90
22678;DHT22;26259;50.214;18.620;2023-02-25T16:44:33;2.20;99.90
22678;DHT22;26259;50.214;18.620;2023-02-25T16:47:00;2.30;99.90
22678;DHT22;26259;50.214;18.620;2023-02-25T16:49:35;2.30;99.90
22678;DHT22;26259;50.214;18.620;2023-02-25T16:52:02;2.30;99.90
22678;DHT22;26259;50.214;18.620;2023-02-25T16:54:38;2.30;99.90
22678;DHT22;26259;50.214;18.620;2023-02-25T16:57:06;2.30;99.90
22678;DHT22;26259;50.214;18.620;2023-02-25T16:59:35;2.30;99.90
22678;DHT22;26259;50.214;18.620;2023-02-25T17:04:52;2.40;99.90
22678;DHT22;26259;50.214;18.620;2023-02-25T17:07:22;2.40;99.90
22678;DHT22;26259;50.214;18.620;2023-02-25T17:14:53;2.40;99.90
22678;DHT22;26259;50.214;18.620;2023-02-25T17:17:26;2.40;99.90
22678;DHT22;26259;50.214;18.620;2023-02-25T17:19:54;2.40;99.90
22678;DHT22;26259;50.214;18.620;2023-02-25T17:22:21;2.40;99.90
22678;DHT22;26259;50.214;18.620;2023-02-25T17:24:50;2.50;99.90
22678;DHT22;26259;50.214;18.620;2023-02-25T17:27:17;2.50;99.90
22678;DHT22;26259;50.214;18.620;2023-02-25T17:29:43;2.50;99.90
22678;DHT22;26259;50.214;18.620;2023-02-25T17:32:19;2.40;99.90
22678;DHT22;26259;50.214;18.620;2023-02-25T17:34:45;2.50;99.90
22678;DHT22;26259;50.214;18.620;2023-02-25T17:37:12;2.50;99.90
22678;DHT22;26259;50.214;18.620;2023-02-25T17:39:39;2.50;99.90
22678;DHT22;26259;50.214;18.620;2023-02-25T17:44:53;2.50;99.90
22678;DHT22;26259;50.214;18.620;2023-02-25T17:47:22;2.50;99.90
22678;DHT22;26259;50.214;18.620;2023-02-25T17:49:49;2.50;99.90
22678;DHT22;26259;50.214;18.620;2023-02-25T17:52:18;2.50;99.90
22678;DHT22;26259;50.214;18.620;2023-02-25T17:54:55;2.50;99.90
22678;DHT22;26259;50.214;18.620;2023-02-25T17:57:23;2.50;99.90
22678;DHT22;26259;50.214;18.620;2023-02-25T17:59:53;2.50;99.90
22678;DHT22;26259;50.214;18.620;2023-02-25T18:07:42;2.60;99.90
22678;DHT22;26259;50.214;18.620;2023-02-25T18:12:57;2.50;99.90
22678;DHT22;26259;50.214;18.620;2023-02-25T18:15:25;2.50;99.90
22678;DHT22;26259;50.214;18.620;2023-02-25T18:17:56;2.60;99.90
22678;DHT22;26259;50.214;18.620;2023-02-25T18:22:51;2.50;99.90
22678;DHT22;26259;50.214;18.620;2023-02-25T18:25:37;2.40;99.90
22678;DHT22;26259;50.214;18.620;2023-02-25T18:28:06;2.40;99.90
22678;DHT22;26259;50.214;18.620;2023-02-25T18:30:32;2.40;99.90
22678;DHT22;26259;50.214;18.620;2023-02-25T18:32:58;2.40;99.90
22678;DHT22;26259;50.214;18.620;2023-02-25T18:35:28;2.40;99.90
22678;DHT22;26259;50.214;18.620;2023-02-25T18:37:56;2.40;99.90
22678;DHT22;26259;50.214;18.620;2023-02-25T18:40:30;2.40;99.90
22678;DHT22;26259;50.214;18.620;2023-02-25T18:42:57;2.40;99.90
22678;DHT22;26259;50.214;18.620;2023-02-25T18:45:25;2.40;99.90
22678;DHT22;26259;50.214;18.620;2023-02-25T18:47:51;2.40;99.90
22678;DHT22;26259;50.214;18.620;2023-02-25T18:50:18;2.40;99.90
22678;DHT22;26259;50.214;18.620;2023-02-25T18:52:45;2.40;99.90
22678;DHT22;26259;50.214;18.620;2023-02-25T18:55:22;2.50;99.90
22678;DHT22;26259;50.214;18.620;2023-02-25T18:57:48;2.50;99.90
22678;DHT22;26259;50.214;18.620;2023-02-25T19:00:17;2.40;99.90
22678;DHT22;26259;50.214;18.620;2023-02-25T19:02:50;2.50;99.90
22678;DHT22;26259;50.214;18.620;2023-02-25T19:10:28;2.50;99.90
22678;DHT22;26259;50.214;18.620;2023-02-25T19:13:09;2.40;99.90
22678;DHT22;26259;50.214;18.620;2023-02-25T19:18:12;2.40;99.90
22678;DHT22;26259;50.214;18.620;2023-02-25T19:20:39;2.40;99.90
22678;DHT22;26259;50.214;18.620;2023-02-25T19:23:05;2.40;99.90
22678;DHT22;26259;50.214;18.620;2023-02-25T19:25:34;2.40;99.90
22678;DHT22;26259;50.214;18.620;2023-02-25T19:28:01;2.40;99.90
22678;DHT22;26259;50.214;18.620;2023-02-25T19:30:34;2.30;99.90
22678;DHT22;26259;50.214;18.620;2023-02-25T19:33:01;2.30;99.90
22678;DHT22;26259;50.214;18.620;2023-02-25T19:35:28;2.30;99.90
22678;DHT22;26259;50.214;18.620;2023-02-25T19:37:54;2.30;99.90
22678;DHT22;26259;50.214;18.620;2023-02-25T19:40:20;2.20;99.90
22678;DHT22;26259;50.214;18.620;2023-02-25T19:42:46;2.20;99.90
22678;DHT22;26259;50.214;18.620;2023-02-25T19:45:18;2.20;99.90
22678;DHT22;26259;50.214;18.620;2023-02-25T19:47:45;2.10;99.90
22678;DHT22;26259;50.214;18.620;2023-02-25T19:50:11;2.10;99.90
22678;DHT22;26259;50.214;18.620;2023-02-25T19:52:37;2.00;99.90
22678;DHT22;26259;50.214;18.620;2023-02-25T19:55:05;2.00;99.90
22678;DHT22;26259;50.214;18.620;2023-02-25T19:57:31;2.00;99.90